sensor_id;sensor_type;location;lat;lon;timestamp;temperature;humidity
674;DHT22;319;48.764;9.174;2022-10-28T00:01:16;17.30;99.90
674;DHT22;319;48.764;9.174;2022-10-28T00:03:45;17.30;99.90
674;DHT22;319;48.764;9.174;2022-10-28T00:06:14;17.20;99.90
674;DHT22;319;48.764;9.174;2022-10-28T00:08:41;17.20;99.90
674;DHT22;319;48.764;9.174;2022-10-28T00:11:11;17.20;99.90
674;DHT22;319;48.764;9.174;2022-10-28T00:13:39;17.10;99.90
674;DHT22;319;48.764;9.174;2022-10-28T00:16:09;17.10;99.90
674;DHT22;319;48.764;9.174;2022-10-28T00:18:37;17.10;99.90
674;DHT22;319;48.764;9.174;2022-10-28T00:21:07;17.00;99.90
674;DHT22;319;48.764;9.174;2022-10-28T00:23:34;17.00;99.90
674;DHT22;319;48.764;9.174;2022-10-28T00:26:05;17.00;99.90
674;DHT22;319;48.764;9.174;2022-10-28T00:28:33;17.00;99.90
674;DHT22;319;48.764;9.174;2022-10-28T00:31:04;16.90;99.90
674;DHT22;319;48.764;9.174;2022-10-28T00:33:31;16.80;99.90
674;DHT22;319;48.764;9.174;2022-10-28T00:36:11;16.80;99.90
674;DHT22;319;48.764;9.174;2022-10-28T00:38:39;16.80;99.90
674;DHT22;319;48.764;9.174;2022-10-28T00:41:06;16.80;99.90
674;DHT22;319;48.764;9.174;2022-10-28T00:43:35;16.70;99.90
674;DHT22;319;48.764;9.174;2022-10-28T00:46:06;16.70;99.90
674;DHT22;319;48.764;9.174;2022-10-28T00:48:37;16.80;99.90
674;DHT22;319;48.764;9.174;2022-10-28T00:51:07;16.80;99.90
674;DHT22;319;48.764;9.174;2022-10-28T00:53:35;16.80;99.90
674;DHT22;319;48.764;9.174;2022-10-28T00:56:04;16.90;99.90
674;DHT22;319;48.764;9.174;2022-10-28T00:58:31;16.90;99.90
674;DHT22;319;48.764;9.174;2022-10-28T01:00:58;16.90;99.90
674;DHT22;319;48.764;9.174;2022-10-28T01:03:25;17.00;99.90
674;DHT22;319;48.764;9.174;2022-10-28T01:05:52;17.00;99.90
674;DHT22;319;48.764;9.174;2022-10-28T01:08:20;17.00;99.90
674;DHT22;319;48.764;9.174;2022-10-28T01:13:45;17.10;99.90
674;DHT22;319;48.764;9.174;2022-10-28T01:16:25;17.10;99.90
674;DHT22;319;48.764;9.174;2022-10-28T01:19:05;17.20;99.90
674;DHT22;319;48.764;9.174;2022-10-28T01:22:02;17.30;99.90
674;DHT22;319;48.764;9.174;2022-10-28T01:24:52;17.40;99.90
674;DHT22;319;48.764;9.174;2022-10-28T01:27:56;17.40;99.90
674;DHT22;319;48.764;9.174;2022-10-28T01:30:27;17.50;99.90
674;DHT22;319;48.764;9.174;2022-10-28T01:33:03;17.50;99.90
674;DHT22;319;48.764;9.174;2022-10-28T01:35:37;17.50;99.90
674;DHT22;319;48.764;9.174;2022-10-28T01:38:18;17.50;99.90
674;DHT22;319;48.764;9.174;2022-10-28T01:40:52;17.50;99.90
674;DHT22;319;48.764;9.174;2022-10-28T01:43:24;17.50;99.90
674;DHT22;319;48.764;9.174;2022-10-28T01:45:57;17.40;99.90
674;DHT22;319;48.764;9.174;2022-10-28T01:48:30;17.50;99.90
674;DHT22;319;48.764;9.174;2022-10-28T01:51:00;17.40;99.90
674;DHT22;319;48.764;9.174;2022-10-28T01:53:33;17.40;99.90
674;DHT22;319;48.764;9.174;2022-10-28T01:56:03;17.50;99.90
674;DHT22;319;48.764;9.174;2022-10-28T01:58:32;17.50;99.90
674;DHT22;319;48.764;9.174;2022-10-28T02:01:00;17.50;99.90
674;DHT22;319;48.764;9.174;2022-10-28T02:03:32;17.50;99.90
674;DHT22;319;48.764;9.174;2022-10-28T02:06:01;17.40;99.90
674;DHT22;319;48.764;9.174;2022-10-28T02:08:38;17.30;99.90
674;DHT22;319;48.764;9.174;2022-10-28T02:11:17;17.20;99.90
674;DHT22;319;48.764;9.174;2022-10-28T02:13:53;17.20;99.90
674;DHT22;319;48.764;9.174;2022-10-28T02:16:27;17.10;99.90
674;DHT22;319;48.764;9.174;2022-10-28T02:19:02;17.00;99.90
674;DHT22;319;48.764;9.174;2022-10-28T02:21:55;16.90;99.90
674;DHT22;319;48.764;9.174;2022-10-28T02:24:30;16.90;99.90
674;DHT22;319;48.764;9.174;2022-10-28T02:27:04;16.80;99.90
674;DHT22;319;48.764;9.174;2022-10-28T02:29:36;16.80;99.90
674;DHT22;319;48.764;9.174;2022-10-28T02:32:07;16.70;99.90
674;DHT22;319;48.764;9.174;2022-10-28T02:34:39;16.70;99.90
674;DHT22;319;48.764;9.174;2022-10-28T02:37:11;16.60;99.90
674;DHT22;319;48.764;9.174;2022-10-28T02:39:44;16.60;99.90
674;DHT22;319;48.764;9.174;2022-10-28T02:42:15;16.50;99.90
674;DHT22;319;48.764;9.174;2022-10-28T02:44:47;16.50;99.90
674;DHT22;319;48.764;9.174;2022-10-28T02:47:18;16.50;99.90
674;DHT22;319;48.764;9.174;2022-10-28T02:49:49;16.50;99.90
674;DHT22;319;48.764;9.174;2022-10-28T02:52:19;16.50;99.90
674;DHT22;319;48.764;9.174;2022-10-28T02:54:50;16.50;99.90
674;DHT22;319;48.764;9.174;2022-10-28T02:57:21;16.40;99.90
674;DHT22;319;48.764;9.174;2022-10-28T02:59:53;16.40;99.90
674;DHT22;319;48.764;9.174;2022-10-28T03:02:21;16.40;99.90
674;DHT22;319;48.764;9.174;2022-10-28T03:04:47;16.40;99.90
674;DHT22;319;48.764;9.174;2022-10-28T03:07:14;16.40;99.90
674;DHT22;319;48.764;9.174;2022-10-28T03:09:42;16.40;99.90
674;DHT22;319;48.764;9.174;2022-10-28T03:12:09;16.40;99.90
674;DHT22;319;48.764;9.174;2022-10-28T03:14:36;16.40;99.90
674;DHT22;319;48.764;9.174;2022-10-28T03:17:03;16.40;99.90
674;DHT22;319;48.764;9.174;2022-10-28T03:19:29;16.40;99.90
674;DHT22;319;48.764;9.174;2022-10-28T03:21:56;16.40;99.90
674;DHT22;319;48.764;9.174;2022-10-28T03:24:23;16.40;99.90
674;DHT22;319;48.764;9.174;2022-10-28T03:26:51;16.40;99.90
674;DHT22;319;48.764;9.174;2022-10-28T03:29:18;16.40;99.90
674;DHT22;319;48.764;9.174;2022-10-28T03:31:45;16.50;99.90
674;DHT22;319;48.764;9.174;2022-10-28T03:34:12;16.50;99.90
674;DHT22;319;48.764;9.174;2022-10-28T03:36:39;16.50;99.90
674;DHT22;319;48.764;9.174;2022-10-28T03:39:06;16.60;99.90
674;DHT22;319;48.764;9.174;2022-10-28T03:41:32;16.60;99.90
674;DHT22;319;48.764;9.174;2022-10-28T03:44:00;16.60;99.90
674;DHT22;319;48.764;9.174;2022-10-28T03:46:27;16.60;99.90
674;DHT22;319;48.764;9.174;2022-10-28T03:48:54;16.60;99.90
674;DHT22;319;48.764;9.174;2022-10-28T03:51:21;16.70;99.90
674;DHT22;319;48.764;9.174;2022-10-28T03:53:47;16.70;99.90
674;DHT22;319;48.764;9.174;2022-10-28T03:56:14;16.70;99.90
674;DHT22;319;48.764;9.174;2022-10-28T03:58:41;16.70;99.90
674;DHT22;319;48.764;9.174;2022-10-28T04:01:09;16.80;99.90
674;DHT22;319;48.764;9.174;2022-10-28T04:03:36;16.80;99.90
674;DHT22;319;48.764;9.174;2022-10-28T04:06:03;16.80;99.90
674;DHT22;319;48.764;9.174;2022-10-28T04:08:29;16.70;99.90
674;DHT22;319;48.764;9.174;2022-10-28T04:10:56;16.70;99.90
674;DHT22;319;48.764;9.174;2022-10-28T04:13:23;16.70;99.90
674;DHT22;319;48.764;9.174;2022-10-28T04:15:50;16.70;99.90
674;DHT22;319;48.764;9.174;2022-10-28T04:18:18;16.70;99.90
674;DHT22;319;48.764;9.174;2022-10-28T04:20:45;16.70;99.90
674;DHT22;319;48.764;9.174;2022-10-28T04:23:14;16.70;99.90
674;DHT22;319;48.764;9.174;2022-10-28T04:25:41;16.70;99.90
674;DHT22;319;48.764;9.174;2022-10-28T04:28:08;16.70;99.90
674;DHT22;319;48.764;9.174;2022-10-28T04:30:35;16.70;99.90
674;DHT22;319;48.764;9.174;2022-10-28T04:33:02;16.70;99.90
674;DHT22;319;48.764;9.174;2022-10-28T04:35:30;16.60;99.90
674;DHT22;319;48.764;9.174;2022-10-28T04:37:56;16.60;99.90
674;DHT22;319;48.764;9.174;2022-10-28T04:40:23;16.70;99.90
674;DHT22;319;48.764;9.174;2022-10-28T04:42:50;16.70;99.90
674;DHT22;319;48.764;9.174;2022-10-28T04:45:17;16.70;99.90
674;DHT22;319;48.764;9.174;2022-10-28T04:47:43;16.70;99.90
674;DHT22;319;48.764;9.174;2022-10-28T04:50:10;16.70;99.90
674;DHT22;319;48.764;9.174;2022-10-28T04:52:38;16.80;99.90
674;DHT22;319;48.764;9.174;2022-10-28T04:55:05;16.80;99.90
674;DHT22;319;48.764;9.174;2022-10-28T04:57:32;16.80;99.90
674;DHT22;319;48.764;9.174;2022-10-28T04:59:59;16.80;99.90
674;DHT22;319;48.764;9.174;2022-10-28T05:02:25;16.90;99.90
674;DHT22;319;48.764;9.174;2022-10-28T05:04:52;16.90;99.90
674;DHT22;319;48.764;9.174;2022-10-28T05:07:19;16.90;99.90
674;DHT22;319;48.764;9.174;2022-10-28T05:09:47;16.90;99.90
674;DHT22;319;48.764;9.174;2022-10-28T05:12:14;17.00;99.90
674;DHT22;319;48.764;9.174;2022-10-28T05:14:40;17.00;99.90
674;DHT22;319;48.764;9.174;2022-10-28T05:17:08;17.00;99.90
674;DHT22;319;48.764;9.174;2022-10-28T05:19:35;16.90;99.90
674;DHT22;319;48.764;9.174;2022-10-28T05:22:02;17.00;99.90
674;DHT22;319;48.764;9.174;2022-10-28T05:24:29;17.00;99.90
674;DHT22;319;48.764;9.174;2022-10-28T05:26:58;17.00;99.90
674;DHT22;319;48.764;9.174;2022-10-28T05:29:25;17.00;99.90
674;DHT22;319;48.764;9.174;2022-10-28T05:31:51;16.90;99.90
674;DHT22;319;48.764;9.174;2022-10-28T05:34:18;16.90;99.90
674;DHT22;319;48.764;9.174;2022-10-28T05:36:47;16.90;99.90
674;DHT22;319;48.764;9.174;2022-10-28T05:39:15;16.90;99.90
674;DHT22;319;48.764;9.174;2022-10-28T05:41:42;16.90;99.90
674;DHT22;319;48.764;9.174;2022-10-28T05:44:10;16.80;99.90
674;DHT22;319;48.764;9.174;2022-10-28T05:46:36;16.80;99.90
674;DHT22;319;48.764;9.174;2022-10-28T05:49:03;16.80;99.90
674;DHT22;319;48.764;9.174;2022-10-28T05:51:30;16.80;99.90
674;DHT22;319;48.764;9.174;2022-10-28T05:53:57;16.80;99.90
674;DHT22;319;48.764;9.174;2022-10-28T05:56:23;16.70;99.90
674;DHT22;319;48.764;9.174;2022-10-28T05:58:50;16.70;99.90
674;DHT22;319;48.764;9.174;2022-10-28T06:01:18;16.60;99.90
674;DHT22;319;48.764;9.174;2022-10-28T06:03:45;16.60;99.90
674;DHT22;319;48.764;9.174;2022-10-28T06:06:12;16.60;99.90
674;DHT22;319;48.764;9.174;2022-10-28T06:08:38;16.60;99.90
674;DHT22;319;48.764;9.174;2022-10-28T06:11:05;16.50;99.90
674;DHT22;319;48.764;9.174;2022-10-28T06:13:32;16.50;99.90
674;DHT22;319;48.764;9.174;2022-10-28T06:15:59;16.60;99.90
674;DHT22;319;48.764;9.174;2022-10-28T06:18:27;16.60;99.90
674;DHT22;319;48.764;9.174;2022-10-28T06:20:54;16.60;99.90
674;DHT22;319;48.764;9.174;2022-10-28T06:23:22;16.60;99.90
674;DHT22;319;48.764;9.174;2022-10-28T06:25:50;16.60;99.90
674;DHT22;319;48.764;9.174;2022-10-28T06:28:17;16.70;99.90
674;DHT22;319;48.764;9.174;2022-10-28T06:30:43;16.70;99.90
674;DHT22;319;48.764;9.174;2022-10-28T06:33:10;16.70;99.90
674;DHT22;319;48.764;9.174;2022-10-28T06:35:38;16.70;99.90
674;DHT22;319;48.764;9.174;2022-10-28T06:38:05;16.80;99.90
674;DHT22;319;48.764;9.174;2022-10-28T06:40:32;16.80;99.90
674;DHT22;319;48.764;9.174;2022-10-28T06:42:59;16.80;99.90
674;DHT22;319;48.764;9.174;2022-10-28T06:45:26;16.90;99.90
674;DHT22;319;48.764;9.174;2022-10-28T06:47:57;16.90;99.90
674;DHT22;319;48.764;9.174;2022-10-28T06:50:24;16.90;99.90
674;DHT22;319;48.764;9.174;2022-10-28T06:52:54;17.00;99.90
674;DHT22;319;48.764;9.174;2022-10-28T06:55:20;17.00;99.90
674;DHT22;319;48.764;9.174;2022-10-28T06:57:47;17.10;99.90
674;DHT22;319;48.764;9.174;2022-10-28T07:00:15;17.20;99.90
674;DHT22;319;48.764;9.174;2022-10-28T07:02:42;17.30;99.90
674;DHT22;319;48.764;9.174;2022-10-28T07:05:09;17.30;99.90
674;DHT22;319;48.764;9.174;2022-10-28T07:07:36;17.30;99.90
674;DHT22;319;48.764;9.174;2022-10-28T07:10:05;17.50;99.90
674;DHT22;319;48.764;9.174;2022-10-28T07:12:32;17.50;99.90
674;DHT22;319;48.764;9.174;2022-10-28T07:14:58;17.60;99.90
674;DHT22;319;48.764;9.174;2022-10-28T07:17:25;17.60;99.90
674;DHT22;319;48.764;9.174;2022-10-28T07:19:52;17.70;99.90
674;DHT22;319;48.764;9.174;2022-10-28T07:22:19;17.70;99.90
674;DHT22;319;48.764;9.174;2022-10-28T07:24:46;17.80;99.90
674;DHT22;319;48.764;9.174;2022-10-28T07:27:14;17.90;99.90
674;DHT22;319;48.764;9.174;2022-10-28T07:29:40;18.00;99.90
674;DHT22;319;48.764;9.174;2022-10-28T07:32:07;18.10;99.90
674;DHT22;319;48.764;9.174;2022-10-28T07:34:34;18.30;99.90
674;DHT22;319;48.764;9.174;2022-10-28T07:37:00;18.40;99.80
674;DHT22;319;48.764;9.174;2022-10-28T07:39:29;18.50;98.90
674;DHT22;319;48.764;9.174;2022-10-28T07:41:56;18.60;97.80
674;DHT22;319;48.764;9.174;2022-10-28T07:44:24;18.70;97.10
674;DHT22;319;48.764;9.174;2022-10-28T07:46:51;18.80;96.70
674;DHT22;319;48.764;9.174;2022-10-28T07:49:18;18.90;96.50
674;DHT22;319;48.764;9.174;2022-10-28T07:51:44;19.00;96.10
674;DHT22;319;48.764;9.174;2022-10-28T07:54:12;19.10;96.30
674;DHT22;319;48.764;9.174;2022-10-28T07:56:39;19.20;97.10
674;DHT22;319;48.764;9.174;2022-10-28T07:59:06;19.20;97.80
674;DHT22;319;48.764;9.174;2022-10-28T08:01:34;19.10;98.20
674;DHT22;319;48.764;9.174;2022-10-28T08:04:01;19.10;98.30
674;DHT22;319;48.764;9.174;2022-10-28T08:06:28;19.20;98.40
674;DHT22;319;48.764;9.174;2022-10-28T08:08:56;19.30;98.40
674;DHT22;319;48.764;9.174;2022-10-28T08:11:23;19.40;98.50
674;DHT22;319;48.764;9.174;2022-10-28T08:13:50;19.50;98.30
674;DHT22;319;48.764;9.174;2022-10-28T08:16:18;19.60;98.20
674;DHT22;319;48.764;9.174;2022-10-28T08:18:48;19.60;97.90
674;DHT22;319;48.764;9.174;2022-10-28T08:21:19;19.70;97.90
674;DHT22;319;48.764;9.174;2022-10-28T08:23:46;19.70;97.90
674;DHT22;319;48.764;9.174;2022-10-28T08:26:14;19.60;98.00
674;DHT22;319;48.764;9.174;2022-10-28T08:32:06;19.70;98.20
674;DHT22;319;48.764;9.174;2022-10-28T08:34:35;19.70;98.20
674;DHT22;319;48.764;9.174;2022-10-28T08:37:01;19.80;98.30
674;DHT22;319;48.764;9.174;2022-10-28T08:39:28;19.80;98.30
674;DHT22;319;48.764;9.174;2022-10-28T08:42:05;19.90;98.20
674;DHT22;319;48.764;9.174;2022-10-28T08:44:55;20.00;98.00
674;DHT22;319;48.764;9.174;2022-10-28T08:47:34;20.00;97.90
674;DHT22;319;48.764;9.174;2022-10-28T08:50:11;20.10;97.90
674;DHT22;319;48.764;9.174;2022-10-28T08:52:41;20.10;98.10
674;DHT22;319;48.764;9.174;2022-10-28T08:55:13;20.10;98.20
674;DHT22;319;48.764;9.174;2022-10-28T08:57:43;20.20;98.40
674;DHT22;319;48.764;9.174;2022-10-28T09:00:18;20.20;98.40
674;DHT22;319;48.764;9.174;2022-10-28T09:03:12;20.40;98.00
674;DHT22;319;48.764;9.174;2022-10-28T09:05:43;20.50;96.40
674;DHT22;319;48.764;9.174;2022-10-28T09:08:24;20.60;96.90
674;DHT22;319;48.764;9.174;2022-10-28T09:11:05;20.50;97.40
674;DHT22;319;48.764;9.174;2022-10-28T09:13:49;20.40;97.90
674;DHT22;319;48.764;9.174;2022-10-28T09:16:24;20.40;97.90
674;DHT22;319;48.764;9.174;2022-10-28T09:18:55;20.60;98.00
674;DHT22;319;48.764;9.174;2022-10-28T09:21:31;20.60;97.70
674;DHT22;319;48.764;9.174;2022-10-28T09:23:59;20.60;97.80
674;DHT22;319;48.764;9.174;2022-10-28T09:26:39;20.60;97.40
674;DHT22;319;48.764;9.174;2022-10-28T09:29:24;20.50;97.30
674;DHT22;319;48.764;9.174;2022-10-28T09:32:00;20.40;97.60
674;DHT22;319;48.764;9.174;2022-10-28T09:34:33;20.30;97.70
674;DHT22;319;48.764;9.174;2022-10-28T09:37:11;20.40;97.40
674;DHT22;319;48.764;9.174;2022-10-28T09:39:42;20.50;97.00
674;DHT22;319;48.764;9.174;2022-10-28T09:42:13;20.60;95.10
674;DHT22;319;48.764;9.174;2022-10-28T09:44:46;20.40;96.90
674;DHT22;319;48.764;9.174;2022-10-28T09:47:18;20.30;97.40
674;DHT22;319;48.764;9.174;2022-10-28T09:49:47;20.40;97.10
674;DHT22;319;48.764;9.174;2022-10-28T09:52:20;20.50;97.20
674;DHT22;319;48.764;9.174;2022-10-28T09:54:50;20.70;96.50
674;DHT22;319;48.764;9.174;2022-10-28T09:57:18;21.00;94.90
674;DHT22;319;48.764;9.174;2022-10-28T09:59:45;21.40;93.30
674;DHT22;319;48.764;9.174;2022-10-28T10:02:25;21.70;92.30
674;DHT22;319;48.764;9.174;2022-10-28T10:04:53;22.20;92.00
674;DHT22;319;48.764;9.174;2022-10-28T10:07:28;22.50;90.40
674;DHT22;319;48.764;9.174;2022-10-28T10:10:00;22.70;90.20
674;DHT22;319;48.764;9.174;2022-10-28T10:12:32;22.90;89.70
674;DHT22;319;48.764;9.174;2022-10-28T10:14:59;23.00;89.20
674;DHT22;319;48.764;9.174;2022-10-28T10:17:31;23.00;88.70
674;DHT22;319;48.764;9.174;2022-10-28T10:20:03;23.10;89.70
674;DHT22;319;48.764;9.174;2022-10-28T10:22:34;23.20;89.20
674;DHT22;319;48.764;9.174;2022-10-28T10:25:02;23.30;89.00
674;DHT22;319;48.764;9.174;2022-10-28T10:27:29;23.40;89.10
674;DHT22;319;48.764;9.174;2022-10-28T10:30:16;23.50;88.80
674;DHT22;319;48.764;9.174;2022-10-28T10:32:46;23.60;88.30
674;DHT22;319;48.764;9.174;2022-10-28T10:35:27;23.50;88.60
674;DHT22;319;48.764;9.174;2022-10-28T10:37:57;23.30;89.20
674;DHT22;319;48.764;9.174;2022-10-28T10:40:27;23.10;87.80
674;DHT22;319;48.764;9.174;2022-10-28T10:43:13;23.10;88.60
674;DHT22;319;48.764;9.174;2022-10-28T10:45:50;23.10;88.80
674;DHT22;319;48.764;9.174;2022-10-28T10:48:18;23.10;88.40
674;DHT22;319;48.764;9.174;2022-10-28T10:50:46;23.20;88.30
674;DHT22;319;48.764;9.174;2022-10-28T10:53:19;23.20;88.50
674;DHT22;319;48.764;9.174;2022-10-28T10:55:52;23.20;88.50
674;DHT22;319;48.764;9.174;2022-10-28T10:58:22;23.30;87.80
674;DHT22;319;48.764;9.174;2022-10-28T11:00:53;23.40;89.50
674;DHT22;319;48.764;9.174;2022-10-28T11:03:25;23.40;90.30
674;DHT22;319;48.764;9.174;2022-10-28T11:05:54;23.40;90.40
674;DHT22;319;48.764;9.174;2022-10-28T11:12:25;23.50;90.30
674;DHT22;319;48.764;9.174;2022-10-28T11:14:55;23.60;90.20
674;DHT22;319;48.764;9.174;2022-10-28T11:17:24;23.80;88.70
674;DHT22;319;48.764;9.174;2022-10-28T11:19:53;23.90;88.10
674;DHT22;319;48.764;9.174;2022-10-28T11:22:37;24.10;88.60
674;DHT22;319;48.764;9.174;2022-10-28T11:25:31;24.20;87.60
674;DHT22;319;48.764;9.174;2022-10-28T11:28:23;24.30;88.10
674;DHT22;319;48.764;9.174;2022-10-28T11:31:06;24.30;89.30
674;DHT22;319;48.764;9.174;2022-10-28T11:33:42;24.30;89.40
674;DHT22;319;48.764;9.174;2022-10-28T11:36:15;24.10;89.90
674;DHT22;319;48.764;9.174;2022-10-28T11:39:06;24.00;90.10
674;DHT22;319;48.764;9.174;2022-10-28T11:41:54;24.00;90.10
674;DHT22;319;48.764;9.174;2022-10-28T11:44:33;23.90;90.20
674;DHT22;319;48.764;9.174;2022-10-28T11:47:15;23.90;90.50
674;DHT22;319;48.764;9.174;2022-10-28T11:50:05;23.80;91.00
674;DHT22;319;48.764;9.174;2022-10-28T11:52:48;23.50;91.90
674;DHT22;319;48.764;9.174;2022-10-28T11:55:25;23.20;92.20
674;DHT22;319;48.764;9.174;2022-10-28T11:58:03;23.20;92.10
674;DHT22;319;48.764;9.174;2022-10-28T12:00:42;23.00;92.00
674;DHT22;319;48.764;9.174;2022-10-28T12:03:31;23.00;91.90
674;DHT22;319;48.764;9.174;2022-10-28T12:06:14;23.10;92.30
674;DHT22;319;48.764;9.174;2022-10-28T12:09:07;23.10;92.10
674;DHT22;319;48.764;9.174;2022-10-28T12:11:52;23.30;90.70
674;DHT22;319;48.764;9.174;2022-10-28T12:14:28;23.40;90.50
674;DHT22;319;48.764;9.174;2022-10-28T12:17:04;23.70;90.70
674;DHT22;319;48.764;9.174;2022-10-28T12:19:42;23.90;90.80
674;DHT22;319;48.764;9.174;2022-10-28T12:22:12;24.00;90.50
674;DHT22;319;48.764;9.174;2022-10-28T12:24:50;24.10;90.60
674;DHT22;319;48.764;9.174;2022-10-28T12:27:22;24.30;90.70
674;DHT22;319;48.764;9.174;2022-10-28T12:29:53;24.40;90.20
674;DHT22;319;48.764;9.174;2022-10-28T12:32:26;24.60;90.00
674;DHT22;319;48.764;9.174;2022-10-28T12:34:59;24.70;89.20
674;DHT22;319;48.764;9.174;2022-10-28T12:37:31;24.70;89.60
674;DHT22;319;48.764;9.174;2022-10-28T12:40:05;24.80;89.20
674;DHT22;319;48.764;9.174;2022-10-28T12:42:36;24.90;88.90
674;DHT22;319;48.764;9.174;2022-10-28T12:45:24;25.10;90.20
674;DHT22;319;48.764;9.174;2022-10-28T12:47:57;24.90;90.00
674;DHT22;319;48.764;9.174;2022-10-28T12:50:30;24.70;90.30
674;DHT22;319;48.764;9.174;2022-10-28T12:53:06;24.70;90.50
674;DHT22;319;48.764;9.174;2022-10-28T12:56:07;24.80;90.60
674;DHT22;319;48.764;9.174;2022-10-28T12:59:00;24.80;90.50
674;DHT22;319;48.764;9.174;2022-10-28T13:01:55;24.90;90.50
674;DHT22;319;48.764;9.174;2022-10-28T13:04:27;25.00;90.60
674;DHT22;319;48.764;9.174;2022-10-28T13:10:06;25.00;90.40
674;DHT22;319;48.764;9.174;2022-10-28T13:12:56;25.10;90.20
674;DHT22;319;48.764;9.174;2022-10-28T13:19:23;25.00;90.50
674;DHT22;319;48.764;9.174;2022-10-28T13:25:23;24.90;90.70
674;DHT22;319;48.764;9.174;2022-10-28T13:27:56;24.90;91.00
674;DHT22;319;48.764;9.174;2022-10-28T13:30:24;24.80;91.20
674;DHT22;319;48.764;9.174;2022-10-28T13:32:59;24.70;91.40
674;DHT22;319;48.764;9.174;2022-10-28T13:35:28;24.60;91.50
674;DHT22;319;48.764;9.174;2022-10-28T13:37:59;24.50;92.00
674;DHT22;319;48.764;9.174;2022-10-28T13:43:59;24.50;91.70
674;DHT22;319;48.764;9.174;2022-10-28T13:46:59;24.40;91.30
674;DHT22;319;48.764;9.174;2022-10-28T13:49:26;24.40;91.30
674;DHT22;319;48.764;9.174;2022-10-28T13:51:59;24.30;91.60
674;DHT22;319;48.764;9.174;2022-10-28T13:54:52;24.30;91.80
674;DHT22;319;48.764;9.174;2022-10-28T13:57:24;24.20;92.20
674;DHT22;319;48.764;9.174;2022-10-28T13:59:56;24.20;92.80
674;DHT22;319;48.764;9.174;2022-10-28T14:02:27;24.20;93.10
674;DHT22;319;48.764;9.174;2022-10-28T14:08:17;24.20;92.90
674;DHT22;319;48.764;9.174;2022-10-28T14:11:00;24.20;92.70
674;DHT22;319;48.764;9.174;2022-10-28T14:13:29;24.20;92.80
674;DHT22;319;48.764;9.174;2022-10-28T14:16:19;24.30;93.00
674;DHT22;319;48.764;9.174;2022-10-28T14:18:58;24.20;92.40
674;DHT22;319;48.764;9.174;2022-10-28T14:21:39;24.30;92.40
674;DHT22;319;48.764;9.174;2022-10-28T14:24:13;24.40;91.70
674;DHT22;319;48.764;9.174;2022-10-28T14:27:29;24.50;91.10
674;DHT22;319;48.764;9.174;2022-10-28T14:30:23;24.70;89.20
674;DHT22;319;48.764;9.174;2022-10-28T14:33:18;24.80;87.30
674;DHT22;319;48.764;9.174;2022-10-28T14:35:48;24.80;87.60
674;DHT22;319;48.764;9.174;2022-10-28T14:41:59;24.90;88.80
674;DHT22;319;48.764;9.174;2022-10-28T14:44:50;24.90;90.40
674;DHT22;319;48.764;9.174;2022-10-28T14:47:40;24.90;90.60
674;DHT22;319;48.764;9.174;2022-10-28T14:50:22;24.90;90.50
674;DHT22;319;48.764;9.174;2022-10-28T14:52:51;24.80;89.80
674;DHT22;319;48.764;9.174;2022-10-28T14:55:24;24.80;87.40
674;DHT22;319;48.764;9.174;2022-10-28T14:58:41;24.80;87.80
674;DHT22;319;48.764;9.174;2022-10-28T15:01:36;24.90;87.50
674;DHT22;319;48.764;9.174;2022-10-28T15:04:10;24.70;88.10
674;DHT22;319;48.764;9.174;2022-10-28T15:06:53;24.70;89.00
674;DHT22;319;48.764;9.174;2022-10-28T15:09:27;24.70;87.60
674;DHT22;319;48.764;9.174;2022-10-28T15:11:56;24.70;88.00
674;DHT22;319;48.764;9.174;2022-10-28T15:14:30;24.70;88.40
674;DHT22;319;48.764;9.174;2022-10-28T15:16:57;24.70;87.40
674;DHT22;319;48.764;9.174;2022-10-28T15:19:26;24.60;86.90
674;DHT22;319;48.764;9.174;2022-10-28T15:22:11;24.60;87.00
674;DHT22;319;48.764;9.174;2022-10-28T15:24:38;24.50;87.10
674;DHT22;319;48.764;9.174;2022-10-28T15:27:10;24.50;86.20
674;DHT22;319;48.764;9.174;2022-10-28T15:29:40;24.50;85.30
674;DHT22;319;48.764;9.174;2022-10-28T15:32:14;24.50;85.90
674;DHT22;319;48.764;9.174;2022-10-28T15:34:49;24.50;85.60
674;DHT22;319;48.764;9.174;2022-10-28T15:37:19;24.50;85.70
674;DHT22;319;48.764;9.174;2022-10-28T15:39:47;24.50;85.90
674;DHT22;319;48.764;9.174;2022-10-28T15:42:29;24.50;86.00
674;DHT22;319;48.764;9.174;2022-10-28T15:44:58;24.40;86.00
674;DHT22;319;48.764;9.174;2022-10-28T15:47:29;24.40;86.20
674;DHT22;319;48.764;9.174;2022-10-28T15:50:08;24.40;86.20
674;DHT22;319;48.764;9.174;2022-10-28T15:52:47;24.30;86.20
674;DHT22;319;48.764;9.174;2022-10-28T15:55:31;24.30;86.50
674;DHT22;319;48.764;9.174;2022-10-28T15:58:00;24.40;86.50
674;DHT22;319;48.764;9.174;2022-10-28T16:00:29;24.30;87.30
674;DHT22;319;48.764;9.174;2022-10-28T16:02:58;24.30;88.00
674;DHT22;319;48.764;9.174;2022-10-28T16:05:53;24.30;89.20
674;DHT22;319;48.764;9.174;2022-10-28T16:08:27;24.20;90.20
674;DHT22;319;48.764;9.174;2022-10-28T16:10:57;24.10;88.80
674;DHT22;319;48.764;9.174;2022-10-28T16:13:28;24.00;89.40
674;DHT22;319;48.764;9.174;2022-10-28T16:15:59;23.90;90.20
674;DHT22;319;48.764;9.174;2022-10-28T16:18:27;23.90;89.70
674;DHT22;319;48.764;9.174;2022-10-28T16:20:55;23.80;89.00
674;DHT22;319;48.764;9.174;2022-10-28T16:23:29;23.80;88.70
674;DHT22;319;48.764;9.174;2022-10-28T16:25:59;23.80;88.60
674;DHT22;319;48.764;9.174;2022-10-28T16:28:27;23.80;89.50
674;DHT22;319;48.764;9.174;2022-10-28T16:30:56;23.80;90.20
674;DHT22;319;48.764;9.174;2022-10-28T16:33:27;23.80;90.40
674;DHT22;319;48.764;9.174;2022-10-28T16:35:55;23.70;90.20
674;DHT22;319;48.764;9.174;2022-10-28T16:38:22;23.70;90.00
674;DHT22;319;48.764;9.174;2022-10-28T16:40:50;23.60;90.00
674;DHT22;319;48.764;9.174;2022-10-28T16:43:20;23.60;89.90
674;DHT22;319;48.764;9.174;2022-10-28T16:45:48;23.60;89.90
674;DHT22;319;48.764;9.174;2022-10-28T16:48:16;23.60;90.00
674;DHT22;319;48.764;9.174;2022-10-28T16:50:47;23.60;90.20
674;DHT22;319;48.764;9.174;2022-10-28T16:53:15;23.60;90.60
674;DHT22;319;48.764;9.174;2022-10-28T16:55:42;23.60;90.50
674;DHT22;319;48.764;9.174;2022-10-28T16:58:10;23.50;91.30
674;DHT22;319;48.764;9.174;2022-10-28T17:00:38;23.50;91.00
674;DHT22;319;48.764;9.174;2022-10-28T17:03:05;23.40;92.50
674;DHT22;319;48.764;9.174;2022-10-28T17:05:32;23.30;93.00
674;DHT22;319;48.764;9.174;2022-10-28T17:08:00;23.20;93.30
674;DHT22;319;48.764;9.174;2022-10-28T17:10:27;23.10;94.10
674;DHT22;319;48.764;9.174;2022-10-28T17:12:54;22.90;94.50
674;DHT22;319;48.764;9.174;2022-10-28T17:15:24;22.70;95.10
674;DHT22;319;48.764;9.174;2022-10-28T17:17:52;22.60;95.40
674;DHT22;319;48.764;9.174;2022-10-28T17:20:19;22.50;95.70
674;DHT22;319;48.764;9.174;2022-10-28T17:22:55;22.30;95.90
674;DHT22;319;48.764;9.174;2022-10-28T17:25:23;22.30;96.20
674;DHT22;319;48.764;9.174;2022-10-28T17:27:51;22.20;96.40
674;DHT22;319;48.764;9.174;2022-10-28T17:30:19;22.10;96.40
674;DHT22;319;48.764;9.174;2022-10-28T17:32:50;22.00;96.70
674;DHT22;319;48.764;9.174;2022-10-28T17:35:18;21.90;96.80
674;DHT22;319;48.764;9.174;2022-10-28T17:37:45;21.80;97.10